createdAt,value
2022-09-30T00:01:51.283Z,3.97
2022-09-30T00:04:24.328Z,3.03
2022-09-30T00:06:51.892Z,2.78
2022-09-30T00:09:18.609Z,3.17
2022-09-30T00:11:46.328Z,2.42
2022-09-30T00:14:14.624Z,2.30
2022-09-30T00:16:41.067Z,3.00
2022-09-30T00:19:07.405Z,2.47
2022-09-30T00:21:36.792Z,3.10
2022-09-30T00:24:03.798Z,2.67
2022-09-30T00:26:30.339Z,2.88
2022-09-30T00:28:58.254Z,2.35
2022-09-30T00:31:25.751Z,2.65
2022-09-30T00:34:07.464Z,2.03
2022-09-30T00:36:36.836Z,2.30
2022-09-30T00:39:04.574Z,2.58
2022-09-30T00:41:31.158Z,2.33
2022-09-30T00:43:57.451Z,2.55
2022-09-30T00:46:23.750Z,2.65
2022-09-30T00:48:53.956Z,2.30
2022-09-30T00:51:37.661Z,2.63
2022-09-30T00:54:06.040Z,2.00
2022-09-30T00:56:34.642Z,2.35
2022-09-30T00:59:04.804Z,2.35
2022-09-30T01:01:31.658Z,2.03
2022-09-30T01:04:03.082Z,2.42
2022-09-30T01:06:29.512Z,2.30
2022-09-30T01:08:58.450Z,2.17
2022-09-30T01:11:26.751Z,2.05
2022-09-30T01:13:55.434Z,2.17
2022-09-30T01:16:21.802Z,1.77
2022-09-30T01:19:00.640Z,2.38
2022-09-30T01:21:38.835Z,2.63
2022-09-30T01:24:08.031Z,2.00
2022-09-30T01:26:37.051Z,1.98
2022-09-30T01:29:13.840Z,2.15
2022-09-30T01:31:46.555Z,2.25
2022-09-30T01:34:12.853Z,2.22
2022-09-30T01:36:49.530Z,2.17
2022-09-30T01:39:26.687Z,1.67
2022-09-30T01:42:04.435Z,2.13
2022-09-30T01:44:42.929Z,2.17
2022-09-30T01:47:30.266Z,1.80
2022-09-30T01:50:00.147Z,1.65
2022-09-30T01:52:32.512Z,1.90
2022-09-30T01:55:01.781Z,1.95
2022-09-30T01:57:33.836Z,2.33
2022-09-30T02:00:07.894Z,1.83
2022-09-30T02:02:36.992Z,2.08
2022-09-30T02:05:07.175Z,1.70
2022-09-30T02:07:36.733Z,1.65
2022-09-30T02:10:06.703Z,2.05
2022-09-30T02:12:35.460Z,1.40
2022-09-30T02:15:06.116Z,1.50
2022-09-30T02:17:40.412Z,1.77
2022-09-30T02:20:09.034Z,1.58
2022-09-30T02:22:40.724Z,1.10
2022-09-30T02:25:09.680Z,0.98
2022-09-30T02:27:41.530Z,1.75
2022-09-30T02:30:09.398Z,1.45
2022-09-30T02:32:38.287Z,1.77
2022-09-30T02:35:10.418Z,1.52
2022-09-30T02:37:39.309Z,1.92
2022-09-30T02:40:10.371Z,1.02
2022-09-30T02:42:37.285Z,1.52
2022-09-30T02:45:08.491Z,1.42
2022-09-30T02:47:44.524Z,1.50
2022-09-30T02:50:20.381Z,1.40
2022-09-30T02:52:49.770Z,1.67
2022-09-30T02:55:21.589Z,1.40
2022-09-30T02:57:53.711Z,1.45
2022-09-30T03:00:20.073Z,1.50
2022-09-30T03:02:46.587Z,1.40
2022-09-30T03:05:12.963Z,1.60
2022-09-30T03:07:40.303Z,1.60
2022-09-30T03:10:16.433Z,1.30
2022-09-30T03:12:57.778Z,1.42
2022-09-30T03:15:32.992Z,1.38
2022-09-30T03:18:19.657Z,1.60
2022-09-30T03:20:54.062Z,1.70
2022-09-30T03:23:36.251Z,1.65
2022-09-30T03:26:18.135Z,1.17
2022-09-30T03:28:51.601Z,1.40
2022-09-30T03:31:20.993Z,1.00
2022-09-30T03:33:51.367Z,1.40
2022-09-30T03:36:20.384Z,1.50
2022-09-30T03:38:49.577Z,1.63
2022-09-30T03:41:34.420Z,1.40
2022-09-30T03:44:03.669Z,1.70
2022-09-30T03:46:35.370Z,1.25
2022-09-30T03:49:03.033Z,1.65
2022-09-30T03:51:30.069Z,1.10
2022-09-30T03:53:57.951Z,1.58
2022-09-30T03:56:28.309Z,1.17
2022-09-30T03:58:54.598Z,1.27
2022-09-30T04:01:21.461Z,1.20
2022-09-30T04:03:48.612Z,1.27
2022-09-30T04:06:15.289Z,1.40
2022-09-30T04:08:41.652Z,1.52
2022-09-30T04:11:08.049Z,1.17
2022-09-30T04:13:34.402Z,1.00
2022-09-30T04:16:00.888Z,1.10
2022-09-30T04:18:27.568Z,1.55
2022-09-30T04:20:53.966Z,1.55
2022-09-30T04:23:20.243Z,1.10
2022-09-30T04:25:51.774Z,1.30
2022-09-30T04:28:18.079Z,0.80
2022-09-30T04:30:44.399Z,0.88
2022-09-30T04:33:12.714Z,1.60
2022-09-30T04:35:39.231Z,2.13
2022-09-30T04:38:07.335Z,1.73
2022-09-30T04:40:37.978Z,1.75
2022-09-30T04:43:05.168Z,1.95
2022-09-30T04:45:31.563Z,1.77
2022-09-30T04:47:57.900Z,1.83
2022-09-30T04:50:24.195Z,2.15
2022-09-30T04:52:50.611Z,2.22
2022-09-30T04:55:17.356Z,2.70
2022-09-30T04:57:44.255Z,1.05
2022-09-30T05:00:11.141Z,1.80
2022-09-30T05:02:37.526Z,2.08
2022-09-30T05:05:04.447Z,1.70
2022-09-30T05:07:31.639Z,2.17
2022-09-30T05:09:57.994Z,2.63
2022-09-30T05:12:26.145Z,2.75
2022-09-30T05:14:52.511Z,2.08
2022-09-30T05:17:18.922Z,1.90
2022-09-30T05:19:45.225Z,1.85
2022-09-30T05:22:11.720Z,2.05
2022-09-30T05:24:38.024Z,1.73
2022-09-30T05:27:04.658Z,2.03
2022-09-30T05:29:31.074Z,2.22
2022-09-30T05:31:57.449Z,1.95
2022-09-30T05:34:23.807Z,2.20
2022-09-30T05:36:50.124Z,2.05
2022-09-30T05:39:16.536Z,2.22
2022-09-30T05:41:42.837Z,2.10
2022-09-30T05:44:09.446Z,2.20
2022-09-30T05:46:35.777Z,2.03
2022-09-30T05:49:02.092Z,2.25
2022-09-30T05:51:28.436Z,3.00
2022-09-30T05:53:54.787Z,2.42
2022-09-30T05:56:21.175Z,2.28
2022-09-30T05:58:47.555Z,2.42
2022-09-30T06:01:14.773Z,2.90
2022-09-30T06:03:44.519Z,3.15
2022-09-30T06:06:11.150Z,2.85
2022-09-30T06:08:37.515Z,2.40
2022-09-30T06:11:10.134Z,2.20
2022-09-30T06:13:36.477Z,3.15
2022-09-30T06:16:02.896Z,3.08
2022-09-30T06:18:29.504Z,2.50
2022-09-30T06:20:56.292Z,2.40
2022-09-30T06:23:22.640Z,2.42
2022-09-30T06:25:55.242Z,2.92
2022-09-30T06:28:22.034Z,3.30
2022-09-30T06:30:48.706Z,2.75
2022-09-30T06:33:16.369Z,3.13
2022-09-30T06:35:42.969Z,2.42
2022-09-30T06:38:09.836Z,3.20
2022-09-30T06:40:36.394Z,2.70
2022-09-30T06:43:02.975Z,2.42
2022-09-30T06:45:32.876Z,2.70
2022-09-30T06:48:00.842Z,3.55
2022-09-30T06:50:27.827Z,3.17
2022-09-30T06:52:57.546Z,3.95
2022-09-30T06:55:24.357Z,4.10
2022-09-30T06:57:50.709Z,3.53
2022-09-30T07:00:17.421Z,3.80
2022-09-30T07:02:43.782Z,2.95
2022-09-30T07:05:10.220Z,4.57
2022-09-30T07:07:36.814Z,4.18
2022-09-30T07:10:03.995Z,3.45
2022-09-30T07:12:30.643Z,3.42
2022-09-30T07:14:57.114Z,3.92
2022-09-30T07:17:23.416Z,4.25
2022-09-30T07:19:52.226Z,3.22
2022-09-30T07:22:30.131Z,3.60
2022-09-30T07:24:57.637Z,2.83
2022-09-30T07:27:24.408Z,5.18
2022-09-30T07:30:08.196Z,3.92
2022-09-30T07:32:35.962Z,2.55
2022-09-30T07:35:02.340Z,3.53
2022-09-30T07:37:30.142Z,3.35
2022-09-30T07:39:56.442Z,3.33
2022-09-30T07:42:23.170Z,3.10
2022-09-30T07:44:52.219Z,2.95
2022-09-30T07:47:18.987Z,3.35
2022-09-30T07:49:45.332Z,2.50
2022-09-30T07:52:12.609Z,2.63
2022-09-30T07:54:43.361Z,2.92
2022-09-30T07:57:12.209Z,2.83
2022-09-30T07:59:39.579Z,2.78
2022-09-30T08:02:06.851Z,3.20
2022-09-30T08:04:33.349Z,2.88
2022-09-30T08:07:00.992Z,3.38
2022-09-30T08:09:29.011Z,2.50
2022-09-30T08:11:55.459Z,2.50
2022-09-30T08:14:23.296Z,2.50
2022-09-30T08:16:49.878Z,2.97
2022-09-30T08:19:17.956Z,2.40
2022-09-30T08:21:44.887Z,2.33
2022-09-30T08:24:11.717Z,2.38
2022-09-30T08:26:38.740Z,2.03
2022-09-30T08:29:05.806Z,1.85
2022-09-30T08:31:33.327Z,2.30
2022-09-30T08:33:59.843Z,2.08
2022-09-30T08:36:27.100Z,2.00
2022-09-30T08:38:53.925Z,1.33
2022-09-30T08:41:32.238Z,1.98
2022-09-30T08:44:16.609Z,1.90
2022-09-30T08:46:57.430Z,1.80
2022-09-30T08:49:44.861Z,1.73
2022-09-30T08:52:24.493Z,1.40
2022-09-30T08:54:57.577Z,1.40
2022-09-30T08:57:24.595Z,1.27
2022-09-30T09:00:00.139Z,1.10
2022-09-30T09:02:27.675Z,0.98
2022-09-30T09:04:57.667Z,1.10
2022-09-30T09:07:26.840Z,0.77
2022-09-30T09:09:55.876Z,1.13
2022-09-30T09:12:25.125Z,1.10
2022-09-30T09:14:59.011Z,0.77
2022-09-30T09:17:28.320Z,0.80
2022-09-30T09:20:08.343Z,1.30
2022-09-30T09:22:35.445Z,0.60
2022-09-30T09:25:02.239Z,0.50
2022-09-30T09:27:37.717Z,0.50
2022-09-30T09:30:17.252Z,0.47
2022-09-30T09:32:51.548Z,0.30
2022-09-30T09:35:26.052Z,0.30
2022-09-30T09:38:23.041Z,0.40
2022-09-30T09:40:57.273Z,0.30
2022-09-30T09:43:35.733Z,0.52
2022-09-30T09:46:18.209Z,0.60
2022-09-30T09:48:44.788Z,0.95
2022-09-30T09:51:16.987Z,0.98
2022-09-30T09:53:43.384Z,0.43
2022-09-30T09:56:19.157Z,0.75
2022-09-30T10:04:32.222Z,0.77
2022-09-30T10:07:00.121Z,0.40
2022-09-30T10:09:29.369Z,0.43
2022-09-30T10:12:07.784Z,0.30
2022-09-30T10:14:35.579Z,0.55
2022-09-30T10:17:03.073Z,0.50
2022-09-30T10:19:30.403Z,0.85
2022-09-30T10:22:17.433Z,0.40
2022-09-30T10:24:43.848Z,0.38
2022-09-30T10:27:29.614Z,0.38
2022-09-30T10:29:56.065Z,0.80
2022-09-30T10:32:23.102Z,0.47
2022-09-30T10:34:55.107Z,0.50
2022-09-30T10:37:22.986Z,0.43
2022-09-30T10:39:52.328Z,0.65
2022-09-30T10:42:26.548Z,0.50
2022-09-30T10:44:56.431Z,0.30
2022-09-30T10:47:26.212Z,0.70
2022-09-30T10:49:58.410Z,0.40
2022-09-30T10:52:27.391Z,0.73
2022-09-30T10:54:55.056Z,0.60
2022-09-30T10:57:26.585Z,0.90
2022-09-30T10:59:55.745Z,1.52
2022-09-30T11:02:24.960Z,1.50
2022-09-30T11:04:57.177Z,1.30
2022-09-30T11:07:44.595Z,1.23
2022-09-30T11:10:29.625Z,1.50
2022-09-30T11:13:31.291Z,1.58
2022-09-30T11:15:57.745Z,1.40
2022-09-30T11:18:30.873Z,1.20
2022-09-30T11:21:10.432Z,1.52
2022-09-30T11:23:40.751Z,1.50
2022-09-30T11:26:14.680Z,1.30
2022-09-30T11:28:40.970Z,1.10
2022-09-30T11:31:25.992Z,1.38
2022-09-30T11:33:52.344Z,1.10
2022-09-30T11:36:18.623Z,1.00
2022-09-30T11:39:03.587Z,1.10
2022-09-30T11:41:34.891Z,1.17
2022-09-30T11:44:01.192Z,1.40
2022-09-30T11:46:45.927Z,1.10
2022-09-30T11:49:30.973Z,1.38
2022-09-30T11:52:15.955Z,1.17
2022-09-30T11:54:52.691Z,1.13
2022-09-30T11:57:22.353Z,1.10
2022-09-30T12:00:14.786Z,1.00
2022-09-30T12:02:53.058Z,0.93
2022-09-30T12:05:39.881Z,1.00
2022-09-30T12:08:21.221Z,0.60
2022-09-30T12:10:53.734Z,1.02
2022-09-30T12:13:38.334Z,0.55
2022-09-30T12:16:08.188Z,0.98
2022-09-30T12:18:40.072Z,1.02
2022-09-30T12:21:10.041Z,1.10
2022-09-30T12:23:43.715Z,1.25
2022-09-30T12:26:11.862Z,1.83
2022-09-30T12:29:10.517Z,1.75
2022-09-30T12:31:55.018Z,2.25
2022-09-30T12:34:39.520Z,1.92
2022-09-30T12:37:22.195Z,1.45
2022-09-30T12:39:58.565Z,1.10
2022-09-30T12:42:33.174Z,1.63
2022-09-30T12:45:08.382Z,1.25
2022-09-30T12:47:38.691Z,1.42
2022-09-30T12:50:08.129Z,1.13
2022-09-30T12:52:35.916Z,1.10
2022-09-30T12:55:05.707Z,1.35
2022-09-30T12:57:36.957Z,1.27
2022-09-30T13:00:14.005Z,1.48
2022-09-30T13:02:42.149Z,1.90
2022-09-30T13:05:26.981Z,1.02
2022-09-30T13:08:09.100Z,0.70
2022-09-30T13:10:38.510Z,0.93
2022-09-30T13:13:10.619Z,0.80
2022-09-30T13:15:36.917Z,0.75
2022-09-30T13:18:26.737Z,0.88
2022-09-30T13:21:05.275Z,1.00
2022-09-30T13:23:40.484Z,0.98
2022-09-30T13:26:25.794Z,0.80
2022-09-30T13:28:52.985Z,0.60
2022-09-30T13:31:23.733Z,0.55
2022-09-30T13:34:02.058Z,0.90
2022-09-30T13:36:30.586Z,0.90
2022-09-30T13:39:16.470Z,0.77
2022-09-30T13:41:43.983Z,0.73
2022-09-30T13:44:21.344Z,0.50
2022-09-30T13:46:59.385Z,0.57
2022-09-30T13:49:29.676Z,0.77
2022-09-30T13:51:56.508Z,0.70
2022-09-30T13:54:35.149Z,0.52
2022-09-30T13:57:02.089Z,0.70
2022-09-30T13:59:38.956Z,0.85
2022-09-30T14:02:22.442Z,1.00
2022-09-30T14:04:48.954Z,1.48
2022-09-30T14:07:38.099Z,0.80
2022-09-30T14:10:13.849Z,1.42
2022-09-30T14:20:18.558Z,1.30
2022-09-30T14:22:45.018Z,1.17
2022-09-30T14:25:18.153Z,1.35
2022-09-30T14:27:57.356Z,0.63
2022-09-30T14:30:24.982Z,1.90
2022-09-30T14:33:24.196Z,1.35
2022-09-30T14:35:53.621Z,1.40
2022-09-30T14:38:26.312Z,1.38
2022-09-30T14:40:54.605Z,3.00
2022-09-30T14:43:22.237Z,2.22
2022-09-30T14:45:51.678Z,1.65
2022-09-30T14:48:19.985Z,1.85
2022-09-30T14:50:46.276Z,2.20
2022-09-30T14:53:31.847Z,1.98
2022-09-30T14:55:58.659Z,2.47
2022-09-30T14:58:29.202Z,2.25
2022-09-30T15:01:11.271Z,2.10
2022-09-30T15:03:39.709Z,3.28
2022-09-30T15:06:06.637Z,3.65
2022-09-30T15:08:33.018Z,2.70
2022-09-30T15:10:59.323Z,2.22
2022-09-30T15:13:28.060Z,2.15
2022-09-30T15:15:54.477Z,2.30
2022-09-30T15:18:31.618Z,2.33
2022-09-30T15:21:09.805Z,2.40
2022-09-30T15:23:37.264Z,1.83
2022-09-30T15:26:03.807Z,2.97
2022-09-30T15:28:30.733Z,2.70
2022-09-30T15:30:57.956Z,3.10
2022-09-30T15:33:27.643Z,2.75
2022-09-30T15:36:15.488Z,2.80
2022-09-30T15:38:45.786Z,2.55
2022-09-30T15:41:12.737Z,2.50
2022-09-30T15:43:52.285Z,2.63
2022-09-30T15:46:21.459Z,2.58
2022-09-30T15:48:47.924Z,2.65
2022-09-30T15:51:26.623Z,2.95
2022-09-30T15:53:53.227Z,2.70
2022-09-30T15:56:19.568Z,3.08
2022-09-30T15:59:22.622Z,2.60
2022-09-30T16:01:50.248Z,2.30
2022-09-30T16:04:16.505Z,2.55
2022-09-30T16:06:45.479Z,2.50
2022-09-30T16:09:17.903Z,1.75
2022-09-30T16:12:08.754Z,1.95
2022-09-30T16:14:54.738Z,2.47
2022-09-30T16:17:27.022Z,1.80
2022-09-30T16:19:57.718Z,1.98
2022-09-30T16:22:42.295Z,1.83
2022-09-30T16:25:27.895Z,2.00
2022-09-30T16:27:56.481Z,1.50
2022-09-30T16:30:23.088Z,1.33
2022-09-30T16:32:51.739Z,2.25
2022-09-30T16:35:22.140Z,1.40
2022-09-30T16:37:48.844Z,1.60
2022-09-30T16:40:16.989Z,1.50
2022-09-30T16:42:43.657Z,1.40
2022-09-30T16:45:12.040Z,1.25
2022-09-30T16:47:38.355Z,1.38
2022-09-30T16:50:23.132Z,1.65
2022-09-30T16:52:49.471Z,1.40
2022-09-30T16:57:47.215Z,1.00
2022-09-30T17:00:18.117Z,1.17
2022-09-30T17:02:45.452Z,1.20
2022-09-30T17:05:22.169Z,1.20
2022-09-30T17:07:56.349Z,1.15
2022-09-30T17:10:30.206Z,1.23
2022-09-30T17:13:00.000Z,1.38
2022-09-30T17:15:27.291Z,1.23
2022-09-30T17:17:53.739Z,1.00
2022-09-30T17:20:20.704Z,1.42
2022-09-30T17:22:47.225Z,1.42
2022-09-30T17:25:14.221Z,1.30
2022-09-30T17:27:40.824Z,1.10
2022-09-30T17:30:08.770Z,1.10
2022-09-30T17:32:35.760Z,1.10
2022-09-30T17:35:02.371Z,1.27
2022-09-30T17:37:32.110Z,1.05
2022-09-30T17:39:58.624Z,1.20
2022-09-30T17:42:43.710Z,0.88
2022-09-30T17:45:10.315Z,1.23
2022-09-30T17:47:39.539Z,1.40
2022-09-30T17:50:06.052Z,1.55
2022-09-30T17:52:34.293Z,1.50
2022-09-30T17:55:00.854Z,1.45
2022-09-30T17:57:27.149Z,0.80
2022-09-30T17:59:53.604Z,1.95
2022-09-30T18:02:21.135Z,1.63
2022-09-30T18:04:47.602Z,1.65
2022-09-30T18:07:13.995Z,1.70
2022-09-30T18:09:40.310Z,1.60
2022-09-30T18:12:09.881Z,1.30
2022-09-30T18:14:38.305Z,1.80
2022-09-30T18:17:05.431Z,1.10
2022-09-30T18:19:32.552Z,1.38
2022-09-30T18:21:58.945Z,1.30
2022-09-30T18:24:44.500Z,1.58
2022-09-30T18:27:11.116Z,1.42
2022-09-30T18:29:38.510Z,1.00
2022-09-30T18:32:05.512Z,1.33
2022-09-30T18:34:32.268Z,1.30
2022-09-30T18:37:03.918Z,1.20
2022-09-30T18:39:31.204Z,1.20
2022-09-30T18:41:57.613Z,1.02
2022-09-30T18:44:25.415Z,1.30
2022-09-30T18:46:53.074Z,0.90
2022-09-30T18:49:19.395Z,1.20
2022-09-30T18:51:45.681Z,1.52
2022-09-30T18:54:13.234Z,1.25
2022-09-30T18:56:39.599Z,1.13
2022-09-30T18:59:06.030Z,1.35
2022-09-30T19:01:34.656Z,1.35
2022-09-30T19:04:04.397Z,0.98
2022-09-30T19:06:30.922Z,1.00
2022-09-30T19:08:57.389Z,1.20
2022-09-30T19:11:24.984Z,1.10
2022-09-30T19:13:52.284Z,1.30
2022-09-30T19:16:19.654Z,1.33
2022-09-30T19:18:46.424Z,1.10
2022-09-30T19:21:15.128Z,1.23
2022-09-30T19:23:41.670Z,1.08
2022-09-30T19:26:08.373Z,1.10
2022-09-30T19:28:40.371Z,1.10
2022-09-30T19:31:08.107Z,1.05
2022-09-30T19:33:40.835Z,1.45
2022-09-30T19:36:16.161Z,1.17
2022-09-30T19:38:45.089Z,0.95
2022-09-30T19:41:12.719Z,1.20
2022-09-30T19:43:40.738Z,0.88
2022-09-30T19:46:07.579Z,0.80
2022-09-30T19:48:35.154Z,1.40
2022-09-30T19:51:09.004Z,0.95
2022-09-30T19:53:40.892Z,1.00
2022-09-30T19:56:12.500Z,0.95
2022-09-30T19:58:40.052Z,1.02
2022-09-30T20:01:07.323Z,1.40
2022-09-30T20:03:33.968Z,1.02
2022-09-30T20:06:01.886Z,1.25
2022-09-30T20:08:29.344Z,1.38
2022-09-30T20:11:00.937Z,1.02
2022-09-30T20:13:27.432Z,0.90
2022-09-30T20:15:53.773Z,0.98
2022-09-30T20:18:20.284Z,1.15
2022-09-30T20:20:47.441Z,1.10
2022-09-30T20:23:14.499Z,1.10
2022-09-30T20:25:41.285Z,1.00
2022-09-30T20:28:08.034Z,1.10
2022-09-30T20:30:37.328Z,1.30
2022-09-30T20:33:04.420Z,1.30
2022-09-30T20:35:30.835Z,1.20
2022-09-30T20:37:57.387Z,1.02
2022-09-30T20:40:23.735Z,1.13
2022-09-30T20:42:51.784Z,1.23
2022-09-30T20:45:18.214Z,1.10
2022-09-30T20:47:45.519Z,1.38
2022-09-30T20:50:12.846Z,1.40
2022-09-30T20:52:39.296Z,1.13
2022-09-30T20:55:05.934Z,1.08
2022-09-30T20:57:32.326Z,0.85
2022-09-30T20:59:59.794Z,1.08
2022-09-30T21:02:27.876Z,1.15
2022-09-30T21:04:55.362Z,1.15
2022-09-30T21:07:21.752Z,1.10
2022-09-30T21:09:48.175Z,1.20
2022-09-30T21:12:14.728Z,0.82
2022-09-30T21:14:41.037Z,0.90
2022-09-30T21:17:08.147Z,1.02
2022-09-30T21:19:34.610Z,1.20
2022-09-30T21:22:00.935Z,1.13
2022-09-30T21:24:27.423Z,1.40
2022-09-30T21:26:55.804Z,1.20
2022-09-30T21:29:22.728Z,1.27
2022-09-30T21:31:49.090Z,1.27
2022-09-30T21:34:15.474Z,1.23
2022-09-30T21:36:41.813Z,1.20
2022-09-30T21:39:08.160Z,1.08
2022-09-30T21:41:34.795Z,0.88
2022-09-30T21:44:01.354Z,0.80
2022-09-30T21:46:27.730Z,1.00
2022-09-30T21:49:07.201Z,0.75
2022-09-30T21:51:35.394Z,1.00
2022-09-30T21:54:02.833Z,0.95
2022-09-30T21:56:29.298Z,0.90
2022-09-30T21:58:56.059Z,1.08
2022-09-30T22:01:22.690Z,1.13
2022-09-30T22:03:49.045Z,1.20
2022-09-30T22:06:16.056Z,1.17
2022-09-30T22:08:42.347Z,1.10
2022-09-30T22:11:16.583Z,1.17
2022-09-30T22:13:44.547Z,1.30
2022-09-30T22:16:11.415Z,1.35
2022-09-30T22:18:38.230Z,1.65
2022-09-30T22:21:05.719Z,1.20
2022-09-30T22:23:32.062Z,1.70
2022-09-30T22:26:05.225Z,1.20
2022-09-30T22:28:31.629Z,1.45
2022-09-30T22:30:58.065Z,1.30
2022-09-30T22:33:42.991Z,1.33
2022-09-30T22:36:28.157Z,1.50
2022-09-30T22:38:54.510Z,1.65
2022-09-30T22:41:21.733Z,1.20
2022-09-30T22:43:48.275Z,1.40
2022-09-30T22:46:14.623Z,1.90
2022-09-30T22:48:41.219Z,1.63
2022-09-30T22:51:13.947Z,1.17
2022-09-30T22:53:40.313Z,1.42
2022-09-30T22:56:06.749Z,0.98
2022-09-30T22:58:34.043Z,1.00
2022-09-30T23:01:00.445Z,1.75
2022-09-30T23:03:26.814Z,1.10
2022-09-30T23:05:58.953Z,1.85
2022-09-30T23:08:28.693Z,1.67
2022-09-30T23:10:54.968Z,1.45
2022-09-30T23:13:21.270Z,1.20
2022-09-30T23:15:47.859Z,1.50
2022-09-30T23:18:19.904Z,1.60
2022-09-30T23:20:55.109Z,1.10
2022-09-30T23:23:21.388Z,1.02
2022-09-30T23:25:47.674Z,1.40
2022-09-30T23:28:14.090Z,1.50
2022-09-30T23:30:40.424Z,1.35
2022-09-30T23:33:09.432Z,1.50
2022-09-30T23:35:35.751Z,1.38
2022-09-30T23:38:02.124Z,1.38
2022-09-30T23:40:28.409Z,1.23
2022-09-30T23:42:56.463Z,1.15
2022-09-30T23:45:22.764Z,1.40
2022-09-30T23:47:49.097Z,1.63
2022-09-30T23:50:15.938Z,1.40
2022-09-30T23:52:42.885Z,1.17
2022-09-30T23:55:10.072Z,1.55
2022-09-30T23:57:36.366Z,1.17
